createdAt,value
2022-10-23T00:03:50.634Z,237.3
2022-10-23T00:05:54.699Z,234.5
2022-10-23T00:10:05.811Z,231.7
2022-10-23T00:12:09.858Z,232.7
2022-10-23T00:14:13.929Z,229.7
2022-10-23T00:16:17.976Z,231.5
2022-10-23T00:20:26.083Z,229.3
2022-10-23T00:22:33.133Z,227.1
2022-10-23T00:24:37.178Z,226.8
2022-10-23T00:27:44.890Z,231.7
2022-10-23T00:31:52.887Z,233.3
2022-10-23T00:33:56.986Z,231
2022-10-23T00:38:08.050Z,238.6
2022-10-23T00:40:12.089Z,234.5
2022-10-23T00:42:16.147Z,238.9
2022-10-23T00:44:20.162Z,237.9
2022-10-23T00:48:28.266Z,226.3
2022-10-23T00:50:36.877Z,230.8
2022-10-23T00:52:41.065Z,230.5
2022-10-23T00:58:53.038Z,225
2022-10-23T01:00:57.139Z,224.3
2022-10-23T01:03:01.121Z,227.1
2022-10-23T01:07:12.222Z,224.7
2022-10-23T01:09:16.249Z,228.6
2022-10-23T01:13:24.328Z,223.9
2022-10-23T01:15:28.350Z,223.1
2022-10-23T01:17:32.393Z,215
2022-10-23T01:19:39.431Z,217.9
2022-10-23T01:21:43.462Z,216.8
2022-10-23T01:23:47.511Z,217.5
2022-10-23T01:26:06.111Z,223.8
2022-10-23T01:28:10.149Z,221.3
2022-10-23T01:30:14.226Z,220.1
2022-10-23T01:32:21.270Z,225
2022-10-23T01:34:25.305Z,224.8
2022-10-23T01:36:29.321Z,227
2022-10-23T01:38:33.350Z,225
2022-10-23T01:40:37.391Z,220.4
2022-10-23T01:42:41.765Z,214.8
2022-10-23T01:44:45.466Z,213.1
2022-10-23T01:46:52.498Z,212.9
2022-10-23T01:55:08.610Z,218.9
2022-10-23T01:57:12.610Z,214.9
2022-10-23T01:59:16.665Z,213.9
2022-10-23T02:01:23.790Z,217.5
2022-10-23T02:03:27.699Z,209.9
2022-10-23T02:05:31.725Z,219.4
2022-10-23T02:07:35.741Z,222.2
2022-10-23T02:09:39.781Z,225.2
2022-10-23T02:11:43.787Z,217.7
2022-10-23T02:13:47.833Z,230
2022-10-23T02:15:54.852Z,237.8
2022-10-23T02:17:58.895Z,237
2022-10-23T02:20:02.919Z,240.7
2022-10-23T02:21:06.427Z,243.6
2022-10-23T02:23:10.444Z,239
2022-10-23T02:29:25.542Z,235.3
2022-10-23T02:31:29.563Z,237.8
2022-10-23T02:35:37.606Z,241.2
2022-10-23T02:37:41.883Z,237.4
2022-10-23T02:39:45.613Z,234.6
2022-10-23T02:41:49.640Z,234.3
2022-10-23T02:43:56.673Z,245.2
2022-10-23T02:46:00.704Z,244.8
2022-10-23T02:48:04.705Z,238.1
2022-10-23T02:50:08.724Z,242.7
2022-10-23T02:52:12.753Z,238.6
2022-10-23T02:54:16.762Z,241.8
2022-10-23T02:56:20.815Z,242.3
2022-10-23T02:58:27.820Z,247.4
2022-10-23T03:00:31.834Z,241.3
2022-10-23T03:02:35.869Z,236
2022-10-23T03:04:40.040Z,240.9
2022-10-23T03:06:43.863Z,229.5
2022-10-23T03:08:47.892Z,235.8
2022-10-23T03:10:51.896Z,233.4
2022-10-23T03:12:58.940Z,243.6
2022-10-23T03:15:02.951Z,240.5
2022-10-23T03:18:10.462Z,241.8
2022-10-23T03:20:14.483Z,245.3
2022-10-23T03:22:18.511Z,236
2022-10-23T03:24:22.524Z,240.8
2022-10-23T03:26:29.540Z,247.9
2022-10-23T03:28:33.563Z,245.4
2022-10-23T03:30:37.569Z,247.3
2022-10-23T03:34:45.613Z,247.2
2022-10-23T03:36:49.638Z,243.9
2022-10-23T03:38:53.632Z,246.2
2022-10-23T03:41:00.672Z,248.2
2022-10-23T03:43:04.706Z,245.1
2022-10-23T03:45:08.709Z,232.8
2022-10-23T03:47:12.725Z,243.3
2022-10-23T03:49:16.755Z,232.8
2022-10-23T03:51:20.766Z,241.2
2022-10-23T03:53:24.785Z,242.3
2022-10-23T03:57:35.799Z,250
2022-10-23T03:59:39.807Z,244.5
2022-10-23T04:03:47.840Z,233.5
2022-10-23T04:07:55.853Z,237.3
2022-10-23T04:10:02.901Z,242.9
2022-10-23T04:12:06.913Z,238.8
2022-10-23T04:14:10.912Z,232.9
2022-10-23T04:17:18.512Z,241.1
2022-10-23T04:19:22.474Z,246.9
2022-10-23T04:21:26.465Z,240.7
2022-10-23T04:23:33.502Z,251.3
2022-10-23T04:25:37.615Z,238.4
2022-10-23T04:29:45.562Z,238.4
2022-10-23T04:35:57.594Z,247.8
2022-10-23T04:40:08.664Z,245.4
2022-10-23T04:44:16.704Z,247
2022-10-23T04:46:20.769Z,241.9
2022-10-23T04:48:27.057Z,245
2022-10-23T04:50:28.754Z,246.4
2022-10-23T04:52:35.789Z,249.6
2022-10-23T04:54:39.827Z,249
2022-10-23T04:56:43.847Z,251.2
2022-10-23T04:58:47.912Z,242.1
2022-10-23T05:00:51.907Z,240.3
2022-10-23T05:02:55.895Z,244.1
2022-10-23T05:04:59.931Z,242.5
2022-10-23T05:07:07.107Z,239.2
2022-10-23T05:09:10.986Z,236.7
2022-10-23T05:11:15.011Z,237.4
2022-10-23T05:13:34.280Z,235.9
2022-10-23T05:15:48.892Z,232
2022-10-23T05:17:41.614Z,233.7
2022-10-23T05:19:48.337Z,235.8
2022-10-23T05:21:52.389Z,232
2022-10-23T05:23:56.398Z,235.4
2022-10-23T05:26:00.369Z,227.9
2022-10-23T05:28:04.372Z,232.8
2022-10-23T05:30:08.408Z,235.4
2022-10-23T05:34:19.474Z,229.5
2022-10-23T05:38:27.472Z,231.3
2022-10-23T05:40:31.552Z,227.8
2022-10-23T05:42:38.241Z,231.4
2022-10-23T05:44:39.543Z,228
2022-10-23T05:46:43.558Z,227.9
2022-10-23T05:48:50.645Z,230.2
2022-10-23T05:50:54.627Z,231
2022-10-23T05:52:58.628Z,221.8
2022-10-23T05:55:02.657Z,222.2
2022-10-23T05:57:06.698Z,210.5
2022-10-23T05:59:10.668Z,214.4
2022-10-23T06:01:14.832Z,212.2
2022-10-23T06:03:21.731Z,215.3
2022-10-23T06:05:25.855Z,212.7
2022-10-23T06:07:32.348Z,217.5
2022-10-23T06:08:33.300Z,213.4
2022-10-23T06:10:37.320Z,213.7
2022-10-23T06:12:41.323Z,216.5
2022-10-23T06:14:45.361Z,17.6
2022-10-23T06:16:52.378Z,17.9
2022-10-23T06:18:56.431Z,33.3
2022-10-23T06:21:00.434Z,18.6
2022-10-23T06:23:04.494Z,17.6
2022-10-23T06:25:08.505Z,17.2
2022-10-23T06:27:12.546Z,20.2
2022-10-23T06:29:16.566Z,16
2022-10-23T06:33:27.647Z,25.7
2022-10-23T06:35:31.667Z,47.9
2022-10-23T06:37:35.703Z,16.8
2022-10-23T06:39:39.748Z,18.7
2022-10-23T06:41:43.780Z,24.5
2022-10-23T06:43:47.825Z,12.5
2022-10-23T06:45:56.438Z,18.1
2022-10-23T06:48:00.446Z,15.5
2022-10-23T06:50:04.516Z,15.4
2022-10-23T06:52:14.450Z,18.1
2022-10-23T06:56:16.601Z,21.9
2022-10-23T06:58:20.621Z,20.5
2022-10-23T07:00:27.831Z,26.3
2022-10-23T07:02:31.741Z,29.4
2022-10-23T07:04:35.783Z,16.9
2022-10-23T07:05:39.301Z,16.3
2022-10-23T07:07:43.353Z,14.4
2022-10-23T07:09:47.387Z,29.3
2022-10-23T07:11:51.461Z,19.9
2022-10-23T07:13:58.525Z,24.7
2022-10-23T07:16:02.588Z,41.2
2022-10-23T07:18:06.615Z,27.1
2022-10-23T07:20:10.684Z,33
2022-10-23T07:22:15.982Z,24.8
2022-10-23T07:24:18.790Z,28
2022-10-23T07:26:22.856Z,34.3
2022-10-23T07:28:29.925Z,33.7
2022-10-23T07:30:33.995Z,47.8
2022-10-23T07:32:38.060Z,30.4
2022-10-23T07:34:42.124Z,29.3
2022-10-23T07:36:46.187Z,28.9
2022-10-23T07:38:50.260Z,28.3
2022-10-23T07:43:01.404Z,25.5
2022-10-23T07:45:05.481Z,29.9
2022-10-23T07:47:09.541Z,32.4
2022-10-23T07:49:13.607Z,20.5
2022-10-23T07:51:17.687Z,21.9
2022-10-23T07:53:21.765Z,13.7
2022-10-23T07:55:25.825Z,19
2022-10-23T07:57:32.928Z,43.4
2022-10-23T07:59:38.091Z,33.7
2022-10-23T08:01:41.151Z,32.3
2022-10-23T08:02:44.844Z,25.2
2022-10-23T08:04:48.673Z,22.8
2022-10-23T08:06:52.764Z,24.7
2022-10-23T08:08:56.829Z,35.1
2022-10-23T08:11:03.901Z,29.8
2022-10-23T08:13:07.989Z,23.1
2022-10-23T08:15:12.054Z,22.6
2022-10-23T08:17:16.136Z,15.4
2022-10-23T08:19:20.239Z,34.1
2022-10-23T08:21:24.419Z,26
2022-10-23T08:23:28.367Z,32.8
2022-10-23T08:27:39.676Z,31.9
2022-10-23T08:29:43.621Z,25.2
2022-10-23T08:31:47.710Z,23.9
2022-10-23T08:35:55.881Z,22.9
2022-10-23T08:40:07.042Z,30.6
2022-10-23T08:44:15.248Z,25.6
2022-10-23T08:50:27.496Z,21.4
2022-10-23T08:54:38.685Z,37
2022-10-23T08:56:42.786Z,20.5
2022-10-23T08:58:46.928Z,23.4
2022-10-23T09:01:05.635Z,25.3
2022-10-23T09:03:09.548Z,14.9
2022-10-23T09:07:20.896Z,13.5
2022-10-23T09:09:24.831Z,30.6
2022-10-23T09:15:37.135Z,24.5
2022-10-23T09:17:41.639Z,11.9
2022-10-23T09:19:45.356Z,10.2
2022-10-23T09:21:52.415Z,18.9
2022-10-23T09:26:00.644Z,18.1
2022-10-23T09:28:05.738Z,16.5
2022-10-23T09:30:08.831Z,37.8
2022-10-23T09:32:12.937Z,18.9
2022-10-23T09:34:17.036Z,83.3
2022-10-23T09:36:24.149Z,15.3
2022-10-23T09:38:28.260Z,20.2
2022-10-23T09:40:32.368Z,16.8
2022-10-23T09:42:36.457Z,14
2022-10-23T09:44:40.576Z,18.1
2022-10-23T09:46:44.764Z,28.4
2022-10-23T09:48:48.792Z,70.8
2022-10-23T09:50:55.901Z,15.2
2022-10-23T09:53:00.009Z,20.4
2022-10-23T09:55:04.123Z,15.4
2022-10-23T09:56:07.674Z,20.3
2022-10-23T09:58:11.951Z,19.8
2022-10-23T10:00:15.872Z,27.3
2022-10-23T10:02:20.062Z,14.4
2022-10-23T10:04:27.115Z,36
2022-10-23T10:06:31.371Z,8
2022-10-23T10:08:35.372Z,11.7
2022-10-23T10:10:39.430Z,11
2022-10-23T10:18:58.898Z,16.2
2022-10-23T10:25:11.222Z,20.3
2022-10-23T10:27:15.339Z,13.8
2022-10-23T10:29:19.441Z,11.8
2022-10-23T10:35:34.801Z,10.3
2022-10-23T10:37:38.903Z,11.1
2022-10-23T10:39:43.132Z,8.1
2022-10-23T10:41:47.132Z,23.1
2022-10-23T10:45:55.346Z,10.4
2022-10-23T10:50:06.589Z,6.3
2022-10-23T10:53:14.253Z,5
2022-10-23T10:55:18.373Z,11.9
2022-10-23T10:57:22.489Z,19
2022-10-23T10:59:26.590Z,12.7
2022-10-23T11:01:34.003Z,36.3
2022-10-23T11:03:39.990Z,10.2
2022-10-23T11:05:41.968Z,5.4
2022-10-23T11:07:46.396Z,3.1
2022-10-23T11:09:50.196Z,8.2
2022-10-23T11:11:54.314Z,7.7
2022-10-23T11:13:58.424Z,5.2
2022-10-23T11:16:05.558Z,9.2
2022-10-23T11:18:09.670Z,27.8
2022-10-23T11:20:13.916Z,7.4
2022-10-23T11:22:17.883Z,6.1
2022-10-23T11:24:22.019Z,9.8
2022-10-23T11:26:26.119Z,12.2
2022-10-23T11:28:30.251Z,3.7
2022-10-23T11:30:37.419Z,4.2
2022-10-23T11:32:41.514Z,13.4
2022-10-23T11:34:45.619Z,11.5
2022-10-23T11:36:49.736Z,40.8
2022-10-23T11:40:57.989Z,39.9
2022-10-23T11:43:02.105Z,7.9
2022-10-23T11:45:09.252Z,13.5
2022-10-23T11:47:13.369Z,10.6
2022-10-23T11:49:17.489Z,46.4
2022-10-23T11:50:21.081Z,4.2
2022-10-23T11:52:25.165Z,10.6
2022-10-23T11:54:29.288Z,11.4
2022-10-23T11:56:33.401Z,5.3
2022-10-23T11:58:40.553Z,14.3
2022-10-23T12:00:44.675Z,4.1
2022-10-23T12:06:57.036Z,8.6
2022-10-23T12:11:05.312Z,5.3
2022-10-23T12:13:12.446Z,11.2
2022-10-23T12:15:16.562Z,15.9
2022-10-23T12:17:20.692Z,8.3
2022-10-23T12:19:24.850Z,2.1
2022-10-23T12:21:28.946Z,18.7
2022-10-23T12:23:33.087Z,11.7
2022-10-23T12:25:37.199Z,28.8
2022-10-23T12:27:44.792Z,26.9
2022-10-23T12:29:48.460Z,18
2022-10-23T12:31:52.605Z,29.9
2022-10-23T12:33:56.717Z,22
2022-10-23T12:36:00.854Z,13.5
2022-10-23T12:38:05.007Z,23.5
2022-10-23T12:40:09.142Z,23.5
2022-10-23T12:42:16.268Z,262.2
2022-10-23T12:44:21.958Z,7.3
2022-10-23T12:46:26.070Z,7.3
2022-10-23T12:52:58.589Z,5.9
2022-10-23T12:55:05.744Z,23
2022-10-23T12:57:09.891Z,11.5
2022-10-23T12:59:14.005Z,4.6
2022-10-23T13:01:18.280Z,22.3
2022-10-23T13:05:26.419Z,21.7
2022-10-23T13:13:45.936Z,5.9
2022-10-23T13:15:50.100Z,12.7
2022-10-23T13:17:54.217Z,54.8
2022-10-23T13:24:09.630Z,15.2
2022-10-23T13:26:13.779Z,20.3
2022-10-23T13:30:22.039Z,4.6
2022-10-23T13:38:41.591Z,19.3
2022-10-23T13:40:45.736Z,16.4
2022-10-23T13:42:49.877Z,12.3
2022-10-23T13:43:53.431Z,59.1
2022-10-23T13:45:57.656Z,7.4
2022-10-23T13:48:01.711Z,13.2
2022-10-23T13:50:05.920Z,2
2022-10-23T13:52:13.001Z,16.7
2022-10-23T13:54:17.350Z,6.2
2022-10-23T14:00:29.547Z,13.6
2022-10-23T14:04:37.820Z,12.4
2022-10-23T14:06:44.952Z,165.9
2022-10-23T14:08:49.106Z,216.4
2022-10-23T14:10:53.223Z,5.3
2022-10-23T14:12:57.382Z,5.4
2022-10-23T14:15:01.514Z,3.3
2022-10-23T14:17:05.636Z,8.8
2022-10-23T14:19:09.801Z,4.6
2022-10-23T14:23:21.070Z,5
2022-10-23T14:25:25.362Z,5.3
2022-10-23T14:27:29.331Z,3.8
2022-10-23T14:29:33.485Z,4.5
2022-10-23T14:31:37.617Z,3.1
2022-10-23T14:33:41.771Z,1.4
2022-10-23T14:35:48.912Z,3.5
2022-10-23T14:37:53.065Z,2.3
2022-10-23T14:41:00.782Z,7.6
2022-10-23T14:43:04.915Z,3.1
2022-10-23T14:45:09.066Z,3.3
2022-10-23T14:47:13.175Z,10.7
2022-10-23T14:49:20.350Z,2.6
2022-10-23T14:51:24.495Z,2.2
2022-10-23T14:53:28.626Z,13.1
2022-10-23T14:55:32.757Z,24
2022-10-23T14:57:36.915Z,3.1
2022-10-23T14:59:41.037Z,7
2022-10-23T15:01:47.223Z,8.8
2022-10-23T15:03:52.356Z,9.2
2022-10-23T15:05:56.487Z,32.8
2022-10-23T15:08:00.634Z,14.5
2022-10-23T15:10:04.877Z,55.5
2022-10-23T15:12:08.894Z,6.9
2022-10-23T15:14:13.046Z,137.2
2022-10-23T15:16:17.200Z,11.7
2022-10-23T15:18:24.409Z,13.8
2022-10-23T15:20:28.459Z,9.1
2022-10-23T15:22:32.614Z,32.7
2022-10-23T15:24:36.753Z,13.1
2022-10-23T15:26:40.895Z,36.5
2022-10-23T15:28:45.020Z,11.2
2022-10-23T15:30:49.165Z,132.3
2022-10-23T15:32:56.326Z,8.6
2022-10-23T15:35:00.438Z,9
2022-10-23T15:37:04.601Z,10.7
2022-10-23T15:38:08.163Z,25.7
2022-10-23T15:44:20.564Z,2.8
2022-10-23T15:46:27.706Z,6.2
2022-10-23T15:48:31.871Z,13
2022-10-23T15:50:35.985Z,6
2022-10-23T15:52:40.137Z,64.8
2022-10-23T15:54:44.246Z,5.6
2022-10-23T15:56:48.377Z,3.9
2022-10-23T15:58:52.526Z,19.6
2022-10-23T16:00:59.789Z,2.1
2022-10-23T16:03:03.804Z,10.5
2022-10-23T16:05:07.916Z,10.4
2022-10-23T16:07:12.064Z,8.7
2022-10-23T16:09:16.183Z,6.6
2022-10-23T16:11:20.310Z,16.9
2022-10-23T16:19:39.864Z,1.4
2022-10-23T16:21:43.992Z,5.7
2022-10-23T16:23:49.257Z,8.7
2022-10-23T16:25:52.231Z,2.9
2022-10-23T16:27:56.372Z,5
2022-10-23T16:30:03.519Z,3.6
2022-10-23T16:32:07.660Z,3.9
2022-10-23T16:34:11.770Z,7.9
2022-10-23T16:36:39.606Z,4.3
2022-10-23T16:38:43.739Z,3.5
2022-10-23T16:40:47.846Z,3.5
2022-10-23T16:42:55.031Z,2.3
2022-10-23T16:44:59.114Z,3.6
2022-10-23T16:47:03.243Z,23.2
2022-10-23T16:49:07.374Z,29.9
2022-10-23T16:51:11.521Z,40.1
2022-10-23T16:53:15.636Z,51.6
2022-10-23T16:55:19.795Z,23.9
2022-10-23T16:57:26.936Z,28.7
2022-10-23T16:59:31.048Z,5.5
2022-10-23T17:01:35.223Z,25
2022-10-23T17:03:39.319Z,4.9
2022-10-23T17:05:43.446Z,6.2
2022-10-23T17:07:47.586Z,14.6
2022-10-23T17:09:51.706Z,3.3
2022-10-23T17:11:58.854Z,5.5
2022-10-23T17:14:02.997Z,4.5
2022-10-23T17:16:07.146Z,11.8
2022-10-23T17:18:11.268Z,14.7
2022-10-23T17:20:15.418Z,13.3
2022-10-23T17:22:19.536Z,19.9
2022-10-23T17:24:23.649Z,2.8
2022-10-23T17:26:30.808Z,2.8
2022-10-23T17:28:34.932Z,14.3
2022-10-23T17:30:39.075Z,3.3
2022-10-23T17:31:42.641Z,7.4
2022-10-23T17:33:46.757Z,40
2022-10-23T17:35:50.902Z,20.3
2022-10-23T17:46:14.566Z,5.7
2022-10-23T17:50:22.844Z,7.1
2022-10-23T17:54:34.116Z,6.7
2022-10-23T18:02:50.700Z,20.4
2022-10-23T18:04:54.772Z,19.6
2022-10-23T18:06:58.885Z,4.9
2022-10-23T18:09:06.043Z,7.2
2022-10-23T18:11:10.208Z,9.8
2022-10-23T18:13:14.287Z,4.9
2022-10-23T18:15:18.442Z,20.8
2022-10-23T18:17:22.580Z,24.6
2022-10-23T18:19:26.687Z,5.3
2022-10-23T18:21:30.808Z,22.9
2022-10-23T18:23:37.958Z,60.8
2022-10-23T18:25:42.105Z,4.7
2022-10-23T18:27:46.227Z,17.6
2022-10-23T18:28:49.795Z,7.4
2022-10-23T18:30:56.226Z,12.9
2022-10-23T18:35:02.202Z,16.1
2022-10-23T18:37:09.369Z,5.7
2022-10-23T18:39:13.473Z,24.3
2022-10-23T18:41:19.200Z,13.2
2022-10-23T18:43:41.891Z,7.9
2022-10-23T18:45:27.394Z,6.6
2022-10-23T18:47:31.509Z,15.7
2022-10-23T18:49:35.644Z,3.6
2022-10-23T18:51:42.787Z,3.7
2022-10-23T18:53:46.951Z,3.2
2022-10-23T18:55:51.045Z,5.6
2022-10-23T18:57:55.183Z,15.2
2022-10-23T18:59:59.308Z,8.4
2022-10-23T19:02:03.589Z,11.8
2022-10-23T19:04:07.567Z,13.3
2022-10-23T19:06:14.715Z,6.5
2022-10-23T19:08:18.867Z,3.8
2022-10-23T19:10:22.977Z,3.9
2022-10-23T19:12:27.088Z,8.4
2022-10-23T19:14:31.225Z,3.5
2022-10-23T19:22:50.766Z,3
2022-10-23T19:24:54.875Z,6.7
2022-10-23T19:25:58.467Z,39.5
2022-10-23T19:28:02.629Z,3.4
2022-10-23T19:30:06.743Z,11.2
2022-10-23T19:32:10.888Z,2.8
2022-10-23T19:34:18.036Z,10.3
2022-10-23T19:36:23.367Z,7.1
2022-10-23T19:38:26.299Z,7.7
2022-10-23T19:40:30.439Z,4.4
2022-10-23T19:42:34.573Z,16
2022-10-23T19:46:42.817Z,11.1
2022-10-23T19:48:50.028Z,11.4
2022-10-23T19:50:54.110Z,3.5
2022-10-23T19:55:02.374Z,11.2
2022-10-23T19:57:06.494Z,13.6
2022-10-23T19:59:10.631Z,5.5
2022-10-23T20:01:14.872Z,4.3
2022-10-23T20:03:21.892Z,5.9
2022-10-23T20:05:26.000Z,1.4
2022-10-23T20:07:30.155Z,5.6
2022-10-23T20:09:34.279Z,2.8
2022-10-23T20:11:38.401Z,51.2
2022-10-23T20:13:42.555Z,22.7
2022-10-23T20:15:46.663Z,22.2
2022-10-23T20:19:57.927Z,39.2
2022-10-23T20:22:02.047Z,8.6
2022-10-23T20:26:30.486Z,10.5
2022-10-23T20:28:34.598Z,13.6
2022-10-23T20:30:41.737Z,17.3
2022-10-23T20:34:50.030Z,15.7
2022-10-23T20:36:54.105Z,15.9
2022-10-23T20:38:58.204Z,13.4
2022-10-23T20:41:02.336Z,18.4
2022-10-23T20:43:06.472Z,18
2022-10-23T20:45:14.714Z,22
2022-10-23T20:47:17.694Z,23.2
2022-10-23T20:49:21.819Z,19.6
2022-10-23T20:51:25.940Z,20.3
2022-10-23T20:53:30.071Z,21.1
2022-10-23T20:55:34.166Z,17.3
2022-10-23T20:57:38.297Z,19
2022-10-23T20:59:45.423Z,23.7
2022-10-23T21:01:49.795Z,21.6
2022-10-23T21:03:53.678Z,22.5
2022-10-23T21:05:57.785Z,25.6
2022-10-23T21:08:01.904Z,15.4
2022-10-23T21:12:10.125Z,16.4
2022-10-23T21:14:17.246Z,14.3
2022-10-23T21:16:24.798Z,13.2
2022-10-23T21:19:29.052Z,11.7
2022-10-23T21:21:33.170Z,11.1
2022-10-23T21:23:37.277Z,8.5
2022-10-23T21:25:41.458Z,7.6
2022-10-23T21:27:48.534Z,7.3
2022-10-23T21:29:52.631Z,5.3
2022-10-23T21:31:56.751Z,4.4
2022-10-23T21:34:00.981Z,8.4
2022-10-23T21:36:13.501Z,8.6
2022-10-23T21:38:09.092Z,4.3
2022-10-23T21:40:13.212Z,3.4
2022-10-23T21:42:20.394Z,6.5
2022-10-23T21:44:24.453Z,5.6
2022-10-23T21:46:28.558Z,4.1
2022-10-23T21:48:32.705Z,3.3
2022-10-23T21:50:36.838Z,1.4
2022-10-23T21:52:41.081Z,1.9
2022-10-23T21:54:45.039Z,1.9
2022-10-23T21:56:52.183Z,1.9
2022-10-23T21:58:56.342Z,1.3
2022-10-23T22:01:00.466Z,4
2022-10-23T22:03:04.523Z,6.1
2022-10-23T22:05:08.621Z,1.2
2022-10-23T22:07:12.739Z,2.6
2022-10-23T22:09:16.872Z,1
2022-10-23T22:11:23.995Z,0.6
2022-10-23T22:13:28.105Z,6.3
2022-10-23T22:15:32.253Z,2.6
2022-10-23T22:16:35.785Z,7.8
2022-10-23T22:18:39.903Z,5.5
2022-10-23T22:22:48.119Z,3.9
2022-10-23T22:24:55.230Z,7.8
2022-10-23T22:26:59.368Z,2.3
2022-10-23T22:31:07.587Z,3.6
2022-10-23T22:33:11.689Z,2.4
2022-10-23T22:35:15.825Z,3.1
2022-10-23T22:37:20.052Z,2.4
2022-10-23T22:39:27.062Z,0.8
2022-10-23T22:41:31.176Z,10.1
2022-10-23T22:43:35.278Z,11.5
2022-10-23T22:45:39.388Z,5.6
2022-10-23T22:47:43.518Z,2.2
2022-10-23T22:49:47.627Z,7.9
2022-10-23T22:51:51.751Z,2.7
2022-10-23T22:53:58.901Z,3.3
2022-10-23T22:56:03.024Z,13.3
2022-10-23T22:58:07.128Z,9.7
2022-10-23T23:00:11.247Z,8.5
2022-10-23T23:02:15.348Z,5.3
2022-10-23T23:06:23.588Z,8
2022-10-23T23:08:30.733Z,9.1
2022-10-23T23:10:34.863Z,7.8
2022-10-23T23:12:38.962Z,7.6
2022-10-23T23:13:42.514Z,13.5
2022-10-23T23:15:46.638Z,5.5
2022-10-23T23:17:50.743Z,5.1
2022-10-23T23:19:54.864Z,5.2
2022-10-23T23:22:02.021Z,2.7
2022-10-23T23:24:06.120Z,1.8
2022-10-23T23:26:10.227Z,6.2
2022-10-23T23:28:14.364Z,1.6
2022-10-23T23:30:18.461Z,1.5
2022-10-23T23:32:22.572Z,10.6
2022-10-23T23:34:26.709Z,2.1
2022-10-23T23:42:46.519Z,3.4
2022-10-23T23:46:54.444Z,2.7
2022-10-23T23:48:58.538Z,8.5
2022-10-23T23:51:05.666Z,1.9
2022-10-23T23:53:09.798Z,8.3
2022-10-23T23:55:13.951Z,3.6
2022-10-23T23:57:18.115Z,3.4
2022-10-23T23:59:22.198Z,14
